sensor_id;sensor_type;location;lat;lon;timestamp;pressure;altitude;pressure_sealevel;temperature;humidity
71976;BME280;68326;52.124;5.424;2024-01-06T00:02:02;100384.88;;;7.71;87.33
71976;BME280;68326;52.124;5.424;2024-01-06T00:04:29;100384.16;;;7.68;87.32
71976;BME280;68326;52.124;5.424;2024-01-06T00:06:55;100381.72;;;7.65;86.67
71976;BME280;68326;52.124;5.424;2024-01-06T00:09:22;100381.16;;;7.58;87.26
71976;BME280;68326;52.124;5.424;2024-01-06T00:11:49;100391.66;;;7.55;87.60
71976;BME280;68326;52.124;5.424;2024-01-06T00:14:15;100397.81;;;7.52;86.56
71976;BME280;68326;52.124;5.424;2024-01-06T00:16:42;100400.53;;;7.49;86.74
71976;BME280;68326;52.124;5.424;2024-01-06T00:19:08;100405.50;;;7.54;87.28
71976;BME280;68326;52.124;5.424;2024-01-06T00:21:35;100414.31;;;7.50;86.93
71976;BME280;68326;52.124;5.424;2024-01-06T00:24:04;100417.81;;;7.49;86.98
71976;BME280;68326;52.124;5.424;2024-01-06T00:26:30;100424.66;;;7.50;86.62
71976;BME280;68326;52.124;5.424;2024-01-06T00:28:57;100435.16;;;7.47;86.72
71976;BME280;68326;52.124;5.424;2024-01-06T00:31:23;100423.41;;;7.40;86.39
71976;BME280;68326;52.124;5.424;2024-01-06T00:33:50;100425.09;;;7.41;87.27
71976;BME280;68326;52.124;5.424;2024-01-06T00:36:17;100421.88;;;7.35;86.00
71976;BME280;68326;52.124;5.424;2024-01-06T00:38:43;100422.97;;;7.30;86.14
71976;BME280;68326;52.124;5.424;2024-01-06T00:41:10;100419.75;;;7.25;86.62
71976;BME280;68326;52.124;5.424;2024-01-06T00:43:36;100423.50;;;7.18;86.49
71976;BME280;68326;52.124;5.424;2024-01-06T00:46:03;100430.41;;;7.17;86.53
71976;BME280;68326;52.124;5.424;2024-01-06T00:48:29;100432.03;;;7.20;86.75
71976;BME280;68326;52.124;5.424;2024-01-06T00:50:56;100434.63;;;7.20;86.13
71976;BME280;68326;52.124;5.424;2024-01-06T00:53:22;100429.31;;;7.23;86.74
71976;BME280;68326;52.124;5.424;2024-01-06T00:55:49;100431.03;;;7.22;87.13
71976;BME280;68326;52.124;5.424;2024-01-06T00:58:15;100432.88;;;7.20;87.09
71976;BME280;68326;52.124;5.424;2024-01-06T01:00:42;100440.72;;;7.19;87.66
71976;BME280;68326;52.124;5.424;2024-01-06T01:03:08;100437.25;;;7.18;87.36
71976;BME280;68326;52.124;5.424;2024-01-06T01:05:35;100446.72;;;7.19;87.99
71976;BME280;68326;52.124;5.424;2024-01-06T01:08:01;100439.78;;;7.20;88.04
71976;BME280;68326;52.124;5.424;2024-01-06T01:10:28;100451.91;;;7.19;88.00
71976;BME280;68326;52.124;5.424;2024-01-06T01:12:54;100457.78;;;7.23;87.65
71976;BME280;68326;52.124;5.424;2024-01-06T01:15:21;100454.22;;;7.25;88.01
71976;BME280;68326;52.124;5.424;2024-01-06T01:17:48;100462.75;;;7.27;88.22
71976;BME280;68326;52.124;5.424;2024-01-06T01:20:14;100467.22;;;7.24;87.56
71976;BME280;68326;52.124;5.424;2024-01-06T01:22:41;100478.88;;;7.13;87.47
71976;BME280;68326;52.124;5.424;2024-01-06T01:25:07;100473.84;;;7.10;88.19
71976;BME280;68326;52.124;5.424;2024-01-06T01:27:34;100484.44;;;7.04;87.49
71976;BME280;68326;52.124;5.424;2024-01-06T01:30:01;100481.84;;;7.04;87.95
71976;BME280;68326;52.124;5.424;2024-01-06T01:32:27;100488.53;;;7.10;87.40
71976;BME280;68326;52.124;5.424;2024-01-06T01:34:54;100488.03;;;7.00;87.48
71976;BME280;68326;52.124;5.424;2024-01-06T01:37:21;100490.78;;;6.97;87.00
71976;BME280;68326;52.124;5.424;2024-01-06T01:39:47;100499.38;;;6.98;87.57
71976;BME280;68326;52.124;5.424;2024-01-06T01:42:14;100507.06;;;6.99;87.15
71976;BME280;68326;52.124;5.424;2024-01-06T01:44:40;100507.91;;;7.00;86.90
71976;BME280;68326;52.124;5.424;2024-01-06T01:47:07;100515.13;;;6.91;87.05
71976;BME280;68326;52.124;5.424;2024-01-06T01:49:34;100518.88;;;6.84;86.91
71976;BME280;68326;52.124;5.424;2024-01-06T01:52:01;100525.00;;;6.82;86.92
71976;BME280;68326;52.124;5.424;2024-01-06T01:54:27;100525.47;;;6.91;88.21
71976;BME280;68326;52.124;5.424;2024-01-06T01:56:54;100531.38;;;6.95;86.91
71976;BME280;68326;52.124;5.424;2024-01-06T01:59:20;100528.25;;;6.87;86.98
71976;BME280;68326;52.124;5.424;2024-01-06T02:01:47;100531.88;;;6.83;nan
71976;BME280;68326;52.124;5.424;2024-01-06T02:04:14;100530.13;;;6.83;87.20
71976;BME280;68326;52.124;5.424;2024-01-06T02:06:40;100537.03;;;6.83;87.44
71976;BME280;68326;52.124;5.424;2024-01-06T02:09:07;100542.06;;;6.86;86.85
71976;BME280;68326;52.124;5.424;2024-01-06T02:11:34;100543.97;;;6.82;86.47
71976;BME280;68326;52.124;5.424;2024-01-06T02:14:00;100540.47;;;6.83;86.53
71976;BME280;68326;52.124;5.424;2024-01-06T02:16:27;100539.50;;;6.86;86.85
71976;BME280;68326;52.124;5.424;2024-01-06T02:18:54;100539.63;;;6.83;86.42
71976;BME280;68326;52.124;5.424;2024-01-06T02:21:21;100540.31;;;6.86;86.12
71976;BME280;68326;52.124;5.424;2024-01-06T02:23:49;100549.06;;;6.84;86.06
71976;BME280;68326;52.124;5.424;2024-01-06T02:26:16;100551.72;;;6.82;86.25
71976;BME280;68326;52.124;5.424;2024-01-06T02:28:42;100544.13;;;6.78;86.72
71976;BME280;68326;52.124;5.424;2024-01-06T02:31:14;100558.16;;;6.72;86.69
71976;BME280;68326;52.124;5.424;2024-01-06T02:33:40;100552.19;;;6.70;86.45
71976;BME280;68326;52.124;5.424;2024-01-06T02:36:07;100560.75;;;6.72;86.75
71976;BME280;68326;52.124;5.424;2024-01-06T02:38:34;100564.28;;;6.69;87.58
71976;BME280;68326;52.124;5.424;2024-01-06T02:41:00;100565.91;;;6.72;87.33
71976;BME280;68326;52.124;5.424;2024-01-06T02:43:27;100576.13;;;6.75;86.95
71976;BME280;68326;52.124;5.424;2024-01-06T02:45:53;100575.28;;;6.74;86.40
71976;BME280;68326;52.124;5.424;2024-01-06T02:48:20;100581.59;;;6.67;87.32
71976;BME280;68326;52.124;5.424;2024-01-06T02:50:46;100585.06;;;6.66;87.77
71976;BME280;68326;52.124;5.424;2024-01-06T02:53:13;100586.66;;;6.70;87.87
71976;BME280;68326;52.124;5.424;2024-01-06T02:55:39;100585.69;;;6.73;87.55
71976;BME280;68326;52.124;5.424;2024-01-06T02:58:06;100591.94;;;6.67;87.63
71976;BME280;68326;52.124;5.424;2024-01-06T03:00:33;100583.63;;;6.59;87.90
71976;BME280;68326;52.124;5.424;2024-01-06T03:02:59;100592.78;;;6.68;88.27
71976;BME280;68326;52.124;5.424;2024-01-06T03:05:26;100584.84;;;6.72;87.76
71976;BME280;68326;52.124;5.424;2024-01-06T03:07:52;100591.81;;;6.70;87.76
71976;BME280;68326;52.124;5.424;2024-01-06T03:10:19;100590.91;;;6.71;87.90
71976;BME280;68326;52.124;5.424;2024-01-06T03:12:45;100593.66;;;6.67;87.58
71976;BME280;68326;52.124;5.424;2024-01-06T03:15:13;100597.94;;;6.68;88.42
71976;BME280;68326;52.124;5.424;2024-01-06T03:17:39;100597.91;;;6.69;87.28
71976;BME280;68326;52.124;5.424;2024-01-06T03:20:06;100601.38;;;6.68;87.45
71976;BME280;68326;52.124;5.424;2024-01-06T03:22:33;100609.09;;;6.70;87.47
71976;BME280;68326;52.124;5.424;2024-01-06T03:25:00;100611.94;;;6.62;87.50
71976;BME280;68326;52.124;5.424;2024-01-06T03:27:26;100612.00;;;6.61;87.30
71976;BME280;68326;52.124;5.424;2024-01-06T03:29:53;100619.09;;;6.56;87.34
71976;BME280;68326;52.124;5.424;2024-01-06T03:32:19;100619.88;;;6.58;87.38
71976;BME280;68326;52.124;5.424;2024-01-06T03:34:46;100625.88;;;6.58;88.13
71976;BME280;68326;52.124;5.424;2024-01-06T03:37:13;100636.13;;;6.61;87.61
71976;BME280;68326;52.124;5.424;2024-01-06T03:39:39;100634.44;;;6.60;87.23
71976;BME280;68326;52.124;5.424;2024-01-06T03:42:06;100641.34;;;6.60;87.66
71976;BME280;68326;52.124;5.424;2024-01-06T03:44:33;100642.97;;;6.62;87.39
71976;BME280;68326;52.124;5.424;2024-01-06T03:47:00;100648.97;;;6.63;86.38
71976;BME280;68326;52.124;5.424;2024-01-06T03:49:26;100660.41;;;6.57;87.64
71976;BME280;68326;52.124;5.424;2024-01-06T03:51:54;100653.50;;;6.58;87.26
71976;BME280;68326;52.124;5.424;2024-01-06T03:54:20;100656.25;;;6.53;87.36
71976;BME280;68326;52.124;5.424;2024-01-06T03:56:47;100658.13;;;6.48;87.28
71976;BME280;68326;52.124;5.424;2024-01-06T03:59:13;100667.81;;;6.43;87.45
71976;BME280;68326;52.124;5.424;2024-01-06T04:01:40;100667.69;;;6.46;87.61
71976;BME280;68326;52.124;5.424;2024-01-06T04:04:07;100668.47;;;6.48;87.64
71976;BME280;68326;52.124;5.424;2024-01-06T04:06:33;100678.81;;;6.48;87.46
71976;BME280;68326;52.124;5.424;2024-01-06T04:09:00;100678.03;;;6.46;87.32
71976;BME280;68326;52.124;5.424;2024-01-06T04:11:28;100684.00;;;6.48;87.96
71976;BME280;68326;52.124;5.424;2024-01-06T04:13:54;100677.03;;;6.50;87.43
71976;BME280;68326;52.124;5.424;2024-01-06T04:16:20;100685.75;;;6.47;87.32
71976;BME280;68326;52.124;5.424;2024-01-06T04:18:47;100681.41;;;6.48;87.05
71976;BME280;68326;52.124;5.424;2024-01-06T04:21:14;100677.38;;;6.41;87.39
71976;BME280;68326;52.124;5.424;2024-01-06T04:23:40;100678.19;;;6.41;87.24
71976;BME280;68326;52.124;5.424;2024-01-06T04:26:07;100680.91;;;6.38;87.54
71976;BME280;68326;52.124;5.424;2024-01-06T04:28:33;100682.50;;;6.42;87.56
71976;BME280;68326;52.124;5.424;2024-01-06T04:31:00;100685.91;;;6.43;87.10
71976;BME280;68326;52.124;5.424;2024-01-06T04:33:26;100681.63;;;6.42;87.67
71976;BME280;68326;52.124;5.424;2024-01-06T04:35:53;100688.50;;;6.43;87.41
71976;BME280;68326;52.124;5.424;2024-01-06T04:38:20;100692.09;;;6.39;86.94
71976;BME280;68326;52.124;5.424;2024-01-06T04:40:46;100694.00;;;6.33;86.90
71976;BME280;68326;52.124;5.424;2024-01-06T04:43:13;100693.41;;;6.25;87.18
71976;BME280;68326;52.124;5.424;2024-01-06T04:45:39;100697.78;;;6.23;86.84
71976;BME280;68326;52.124;5.424;2024-01-06T04:48:06;100704.53;;;6.27;87.30
71976;BME280;68326;52.124;5.424;2024-01-06T04:50:33;100709.09;;;6.21;86.42
71976;BME280;68326;52.124;5.424;2024-01-06T04:52:59;100701.59;;;6.13;86.66
71976;BME280;68326;52.124;5.424;2024-01-06T04:55:26;100707.72;;;6.10;86.73
71976;BME280;68326;52.124;5.424;2024-01-06T04:57:52;100710.34;;;6.09;87.84
71976;BME280;68326;52.124;5.424;2024-01-06T05:00:19;100715.41;;;6.12;87.10
71976;BME280;68326;52.124;5.424;2024-01-06T05:02:45;100715.63;;;6.06;86.88
71976;BME280;68326;52.124;5.424;2024-01-06T05:05:12;100720.00;;;6.04;86.44
71976;BME280;68326;52.124;5.424;2024-01-06T05:07:39;100725.09;;;6.05;86.81
71976;BME280;68326;52.124;5.424;2024-01-06T05:10:06;100727.88;;;5.99;86.29
71976;BME280;68326;52.124;5.424;2024-01-06T05:12:32;100725.44;;;5.95;86.93
71976;BME280;68326;52.124;5.424;2024-01-06T05:14:59;100734.69;;;6.02;86.91
71976;BME280;68326;52.124;5.424;2024-01-06T05:17:25;100738.88;;;6.06;86.65
71976;BME280;68326;52.124;5.424;2024-01-06T05:19:52;100735.28;;;6.10;86.46
71976;BME280;68326;52.124;5.424;2024-01-06T05:22:18;100737.97;;;6.07;86.68
71976;BME280;68326;52.124;5.424;2024-01-06T05:24:45;100753.44;;;6.07;86.09
71976;BME280;68326;52.124;5.424;2024-01-06T05:27:12;100752.56;;;6.08;86.40
71976;BME280;68326;52.124;5.424;2024-01-06T05:29:39;100751.13;;;5.99;86.53
71976;BME280;68326;52.124;5.424;2024-01-06T05:32:06;100758.03;;;5.99;86.63
71976;BME280;68326;52.124;5.424;2024-01-06T05:34:32;100758.94;;;5.98;86.66
71976;BME280;68326;52.124;5.424;2024-01-06T05:36:59;100756.34;;;5.98;86.46
71976;BME280;68326;52.124;5.424;2024-01-06T05:39:25;100762.25;;;6.01;86.68
71976;BME280;68326;52.124;5.424;2024-01-06T05:41:52;100763.16;;;6.00;87.14
71976;BME280;68326;52.124;5.424;2024-01-06T05:44:18;100768.28;;;6.02;87.08
71976;BME280;68326;52.124;5.424;2024-01-06T05:46:45;100767.56;;;5.97;87.31
71976;BME280;68326;52.124;5.424;2024-01-06T05:49:11;100772.72;;;5.97;87.45
71976;BME280;68326;52.124;5.424;2024-01-06T05:51:44;100773.38;;;6.03;87.50
71976;BME280;68326;52.124;5.424;2024-01-06T05:54:10;100770.09;;;5.98;87.13
71976;BME280;68326;52.124;5.424;2024-01-06T05:56:37;100781.13;;;6.03;87.18
71976;BME280;68326;52.124;5.424;2024-01-06T05:59:03;100788.97;;;6.00;86.78
71976;BME280;68326;52.124;5.424;2024-01-06T06:01:30;100780.63;;;5.90;87.19
71976;BME280;68326;52.124;5.424;2024-01-06T06:03:56;100785.22;;;5.82;87.54
71976;BME280;68326;52.124;5.424;2024-01-06T06:06:23;100800.59;;;5.85;87.58
71976;BME280;68326;52.124;5.424;2024-01-06T06:08:49;100804.97;;;5.83;87.79
71976;BME280;68326;52.124;5.424;2024-01-06T06:11:16;100803.38;;;5.79;87.51
71976;BME280;68326;52.124;5.424;2024-01-06T06:13:43;100804.28;;;5.78;88.20
71976;BME280;68326;52.124;5.424;2024-01-06T06:16:09;100812.63;;;5.86;87.62
71976;BME280;68326;52.124;5.424;2024-01-06T06:18:38;100814.47;;;5.83;87.81
71976;BME280;68326;52.124;5.424;2024-01-06T06:21:06;100821.50;;;5.78;88.14
71976;BME280;68326;52.124;5.424;2024-01-06T06:23:34;100820.56;;;5.80;88.44
71976;BME280;68326;52.124;5.424;2024-01-06T06:26:07;100824.03;;;5.79;87.52
71976;BME280;68326;52.124;5.424;2024-01-06T06:28:34;100825.94;;;5.74;87.76
71976;BME280;68326;52.124;5.424;2024-01-06T06:31:01;100838.13;;;5.69;87.41
71976;BME280;68326;52.124;5.424;2024-01-06T06:33:29;100832.13;;;5.68;87.35
71976;BME280;68326;52.124;5.424;2024-01-06T06:35:56;100844.25;;;5.65;87.92
71976;BME280;68326;52.124;5.424;2024-01-06T06:38:22;100849.34;;;5.68;87.49
71976;BME280;68326;52.124;5.424;2024-01-06T06:40:49;100854.50;;;5.68;87.34
71976;BME280;68326;52.124;5.424;2024-01-06T06:43:15;100852.91;;;5.64;87.76
71976;BME280;68326;52.124;5.424;2024-01-06T06:45:45;100861.44;;;5.66;87.91
71976;BME280;68326;52.124;5.424;2024-01-06T06:48:12;100872.59;;;5.68;88.32
71976;BME280;68326;52.124;5.424;2024-01-06T06:50:38;100865.69;;;5.68;88.09
71976;BME280;68326;52.124;5.424;2024-01-06T06:53:07;100868.41;;;5.64;88.01
71976;BME280;68326;52.124;5.424;2024-01-06T06:55:34;100869.16;;;5.67;88.50
71976;BME280;68326;52.124;5.424;2024-01-06T06:58:01;100875.81;;;5.75;88.90
71976;BME280;68326;52.124;5.424;2024-01-06T07:00:27;100879.03;;;5.83;87.92
71976;BME280;68326;52.124;5.424;2024-01-06T07:02:54;100893.00;;;5.76;88.39
71976;BME280;68326;52.124;5.424;2024-01-06T07:05:20;100896.44;;;5.76;87.68
71976;BME280;68326;52.124;5.424;2024-01-06T07:07:47;100893.09;;;5.72;88.11
71976;BME280;68326;52.124;5.424;2024-01-06T07:10:13;100899.34;;;5.65;88.58
71976;BME280;68326;52.124;5.424;2024-01-06T07:12:40;100896.03;;;5.60;87.20
71976;BME280;68326;52.124;5.424;2024-01-06T07:15:08;100899.44;;;5.61;87.51
71976;BME280;68326;52.124;5.424;2024-01-06T07:17:37;100917.63;;;5.58;87.65
71976;BME280;68326;52.124;5.424;2024-01-06T07:20:06;100917.41;;;5.65;87.15
71976;BME280;68326;52.124;5.424;2024-01-06T07:22:33;100921.00;;;5.60;87.15
71976;BME280;68326;52.124;5.424;2024-01-06T07:25:01;100919.13;;;5.65;87.44
71976;BME280;68326;52.124;5.424;2024-01-06T07:27:28;100930.34;;;5.64;86.67
71976;BME280;68326;52.124;5.424;2024-01-06T07:29:54;100934.56;;;5.66;86.62
71976;BME280;68326;52.124;5.424;2024-01-06T07:32:25;100930.34;;;5.64;86.00
71976;BME280;68326;52.124;5.424;2024-01-06T07:34:51;100927.81;;;5.62;86.22
71976;BME280;68326;52.124;5.424;2024-01-06T07:37:18;100934.75;;;5.60;85.97
71976;BME280;68326;52.124;5.424;2024-01-06T07:39:44;100935.66;;;5.59;86.42
71976;BME280;68326;52.124;5.424;2024-01-06T07:42:11;100942.50;;;5.60;85.74
71976;BME280;68326;52.124;5.424;2024-01-06T07:44:38;100942.34;;;5.65;85.71
71976;BME280;68326;52.124;5.424;2024-01-06T07:47:04;100949.28;;;5.63;86.01
71976;BME280;68326;52.124;5.424;2024-01-06T07:49:31;100956.06;;;5.67;85.30
71976;BME280;68326;52.124;5.424;2024-01-06T07:51:58;100963.78;;;5.68;85.46
71976;BME280;68326;52.124;5.424;2024-01-06T07:54:26;100965.53;;;5.68;85.02
71976;BME280;68326;52.124;5.424;2024-01-06T07:56:53;100969.88;;;5.66;84.97
71976;BME280;68326;52.124;5.424;2024-01-06T07:59:20;100970.72;;;5.66;85.20
71976;BME280;68326;52.124;5.424;2024-01-06T08:01:46;100976.03;;;5.60;85.36
71976;BME280;68326;52.124;5.424;2024-01-06T08:04:13;100979.41;;;5.64;85.11
71976;BME280;68326;52.124;5.424;2024-01-06T08:06:39;100985.34;;;5.67;84.95
71976;BME280;68326;52.124;5.424;2024-01-06T08:09:06;100986.19;;;5.68;84.67
71976;BME280;68326;52.124;5.424;2024-01-06T08:11:32;100988.66;;;5.71;84.25
71976;BME280;68326;52.124;5.424;2024-01-06T08:13:59;100993.06;;;5.67;84.70
71976;BME280;68326;52.124;5.424;2024-01-06T08:16:25;100996.50;;;5.68;84.90
71976;BME280;68326;52.124;5.424;2024-01-06T08:18:52;101002.41;;;5.71;84.59
71976;BME280;68326;52.124;5.424;2024-01-06T08:21:18;101004.19;;;5.69;84.79
71976;BME280;68326;52.124;5.424;2024-01-06T08:23:45;101005.09;;;5.68;84.23
71976;BME280;68326;52.124;5.424;2024-01-06T08:26:12;101002.53;;;5.67;84.30
71976;BME280;68326;52.124;5.424;2024-01-06T08:28:39;101011.09;;;5.69;84.48
71976;BME280;68326;52.124;5.424;2024-01-06T08:31:05;101015.41;;;5.68;84.61
71976;BME280;68326;52.124;5.424;2024-01-06T08:33:32;101008.50;;;5.69;84.02
71976;BME280;68326;52.124;5.424;2024-01-06T08:35:59;101021.38;;;5.70;84.37
71976;BME280;68326;52.124;5.424;2024-01-06T08:38:26;101028.16;;;5.75;84.34
71976;BME280;68326;52.124;5.424;2024-01-06T08:40:52;101026.50;;;5.72;83.76
71976;BME280;68326;52.124;5.424;2024-01-06T08:43:20;101033.50;;;5.67;83.84
71976;BME280;68326;52.124;5.424;2024-01-06T08:45:46;101039.44;;;5.70;84.32
71976;BME280;68326;52.124;5.424;2024-01-06T08:48:14;101040.22;;;5.74;83.74
71976;BME280;68326;52.124;5.424;2024-01-06T08:50:44;101050.44;;;5.79;83.50
71976;BME280;68326;52.124;5.424;2024-01-06T08:53:14;101044.28;;;5.83;83.59
71976;BME280;68326;52.124;5.424;2024-01-06T08:55:40;101058.94;;;5.82;83.97
71976;BME280;68326;52.124;5.424;2024-01-06T08:58:11;101059.78;;;5.83;83.60
71976;BME280;68326;52.124;5.424;2024-01-06T09:00:38;101065.91;;;5.79;83.56
71976;BME280;68326;52.124;5.424;2024-01-06T09:03:04;101066.16;;;5.69;83.39
71976;BME280;68326;52.124;5.424;2024-01-06T09:05:31;101077.19;;;5.76;83.83
71976;BME280;68326;52.124;5.424;2024-01-06T09:07:57;101081.44;;;5.77;83.36
71976;BME280;68326;52.124;5.424;2024-01-06T09:10:24;101078.00;;;5.78;83.23
71976;BME280;68326;52.124;5.424;2024-01-06T09:12:50;101083.19;;;5.77;83.14
71976;BME280;68326;52.124;5.424;2024-01-06T09:15:17;101094.22;;;5.82;83.70
71976;BME280;68326;52.124;5.424;2024-01-06T09:17:43;101095.09;;;5.82;82.83
71976;BME280;68326;52.124;5.424;2024-01-06T09:20:10;101092.50;;;5.82;83.46
71976;BME280;68326;52.124;5.424;2024-01-06T09:22:37;101090.69;;;5.86;82.62
71976;BME280;68326;52.124;5.424;2024-01-06T09:25:04;101101.16;;;5.80;82.46
71976;BME280;68326;52.124;5.424;2024-01-06T09:27:30;101105.47;;;5.81;83.01
71976;BME280;68326;52.124;5.424;2024-01-06T09:29:57;101114.66;;;5.91;82.86
71976;BME280;68326;52.124;5.424;2024-01-06T09:32:23;101107.88;;;5.87;82.03
71976;BME280;68326;52.124;5.424;2024-01-06T09:34:50;101118.13;;;5.90;82.80
71976;BME280;68326;52.124;5.424;2024-01-06T09:37:17;101120.47;;;5.99;82.93
71976;BME280;68326;52.124;5.424;2024-01-06T09:39:43;101129.00;;;6.03;82.73
71976;BME280;68326;52.124;5.424;2024-01-06T09:42:10;101129.91;;;6.02;82.20
71976;BME280;68326;52.124;5.424;2024-01-06T09:44:38;101134.28;;;5.98;82.38
71976;BME280;68326;52.124;5.424;2024-01-06T09:47:05;101131.88;;;5.90;82.17
71976;BME280;68326;52.124;5.424;2024-01-06T09:49:34;101143.97;;;5.88;82.58
71976;BME280;68326;52.124;5.424;2024-01-06T09:52:13;101138.78;;;5.90;81.85
71976;BME280;68326;52.124;5.424;2024-01-06T09:54:47;101140.41;;;5.94;82.03
71976;BME280;68326;52.124;5.424;2024-01-06T09:57:15;101141.19;;;5.98;81.74
71976;BME280;68326;52.124;5.424;2024-01-06T09:59:44;101153.31;;;5.94;81.19
71976;BME280;68326;52.124;5.424;2024-01-06T10:02:14;101148.25;;;5.91;81.53
71976;BME280;68326;52.124;5.424;2024-01-06T10:04:41;101154.38;;;5.87;81.36
71976;BME280;68326;52.124;5.424;2024-01-06T10:07:10;101157.66;;;5.92;81.52
71976;BME280;68326;52.124;5.424;2024-01-06T10:09:40;101162.19;;;5.84;81.17
71976;BME280;68326;52.124;5.424;2024-01-06T10:12:07;101162.16;;;5.85;81.02
71976;BME280;68326;52.124;5.424;2024-01-06T10:14:34;101168.16;;;5.86;81.39
71976;BME280;68326;52.124;5.424;2024-01-06T10:17:00;101165.53;;;5.87;81.70
71976;BME280;68326;52.124;5.424;2024-01-06T10:19:27;101181.00;;;5.89;81.17
71976;BME280;68326;52.124;5.424;2024-01-06T10:21:54;101180.94;;;5.90;81.52
71976;BME280;68326;52.124;5.424;2024-01-06T10:24:20;101186.22;;;5.86;80.85
71976;BME280;68326;52.124;5.424;2024-01-06T10:26:47;101186.25;;;5.84;81.25
71976;BME280;68326;52.124;5.424;2024-01-06T10:29:14;101191.53;;;5.80;81.20
71976;BME280;68326;52.124;5.424;2024-01-06T10:31:41;101197.47;;;5.85;80.26
71976;BME280;68326;52.124;5.424;2024-01-06T10:34:07;101201.66;;;5.89;80.94
71976;BME280;68326;52.124;5.424;2024-01-06T10:36:35;101193.91;;;5.89;81.08
71976;BME280;68326;52.124;5.424;2024-01-06T10:39:03;101205.16;;;5.86;81.42
71976;BME280;68326;52.124;5.424;2024-01-06T10:41:30;101200.84;;;5.87;81.48
71976;BME280;68326;52.124;5.424;2024-01-06T10:43:58;101203.44;;;5.87;81.19
71976;BME280;68326;52.124;5.424;2024-01-06T10:46:27;101201.66;;;5.89;81.52
71976;BME280;68326;52.124;5.424;2024-01-06T10:48:57;101211.91;;;5.92;80.68
71976;BME280;68326;52.124;5.424;2024-01-06T10:51:25;101207.66;;;5.89;80.81
71976;BME280;68326;52.124;5.424;2024-01-06T10:53:53;101206.84;;;5.87;80.31
71976;BME280;68326;52.124;5.424;2024-01-06T10:56:20;101198.16;;;5.91;80.80
71976;BME280;68326;52.124;5.424;2024-01-06T10:58:47;101206.72;;;5.95;80.76
71976;BME280;68326;52.124;5.424;2024-01-06T11:01:20;101205.78;;;5.98;80.22
71976;BME280;68326;52.124;5.424;2024-01-06T11:03:53;101208.41;;;5.96;80.88
71976;BME280;68326;52.124;5.424;2024-01-06T11:06:22;101216.22;;;5.91;80.44
71976;BME280;68326;52.124;5.424;2024-01-06T11:08:54;101220.38;;;5.99;80.60
71976;BME280;68326;52.124;5.424;2024-01-06T11:11:23;101219.56;;;5.97;80.80
71976;BME280;68326;52.124;5.424;2024-01-06T11:13:50;101216.03;;;6.01;80.25
71976;BME280;68326;52.124;5.424;2024-01-06T11:16:36;101228.66;;;6.11;80.83
71976;BME280;68326;52.124;5.424;2024-01-06T11:22:25;101229.69;;;6.06;80.50
71976;BME280;68326;52.124;5.424;2024-01-06T11:24:55;101230.78;;;5.97;80.11
71976;BME280;68326;52.124;5.424;2024-01-06T11:27:26;101232.41;;;6.00;80.33
71976;BME280;68326;52.124;5.424;2024-01-06T11:29:59;101228.13;;;5.99;79.94
71976;BME280;68326;52.124;5.424;2024-01-06T11:32:29;101227.16;;;6.03;79.64
71976;BME280;68326;52.124;5.424;2024-01-06T11:35:05;101234.94;;;6.01;79.86
71976;BME280;68326;52.124;5.424;2024-01-06T11:42:48;101225.94;;;6.18;79.50
71976;BME280;68326;52.124;5.424;2024-01-06T11:45:15;101229.44;;;6.15;78.81
71976;BME280;68326;52.124;5.424;2024-01-06T11:47:47;101219.94;;;6.16;79.06
71976;BME280;68326;52.124;5.424;2024-01-06T11:50:14;101231.06;;;6.19;79.43
71976;BME280;68326;52.124;5.424;2024-01-06T11:52:40;101232.03;;;6.15;79.00
71976;BME280;68326;52.124;5.424;2024-01-06T11:55:08;101228.53;;;6.16;79.12
71976;BME280;68326;52.124;5.424;2024-01-06T11:57:35;101239.91;;;6.10;78.48
71976;BME280;68326;52.124;5.424;2024-01-06T12:00:02;101234.69;;;6.12;79.10
71976;BME280;68326;52.124;5.424;2024-01-06T12:02:30;101232.13;;;6.12;78.92
71976;BME280;68326;52.124;5.424;2024-01-06T12:04:57;101239.00;;;6.11;79.00
71976;BME280;68326;52.124;5.424;2024-01-06T12:07:23;101235.66;;;6.08;78.88
71976;BME280;68326;52.124;5.424;2024-01-06T12:09:52;101223.56;;;6.10;78.88
71976;BME280;68326;52.124;5.424;2024-01-06T12:12:26;101233.22;;;6.02;79.09
71976;BME280;68326;52.124;5.424;2024-01-06T12:14:53;101231.41;;;6.05;79.31
71976;BME280;68326;52.124;5.424;2024-01-06T12:17:21;101239.91;;;6.10;79.23
71976;BME280;68326;52.124;5.424;2024-01-06T12:19:48;101241.66;;;6.08;79.56
71976;BME280;68326;52.124;5.424;2024-01-06T12:22:15;101241.69;;;6.07;79.57
71976;BME280;68326;52.124;5.424;2024-01-06T12:24:42;101247.78;;;6.06;79.01
71976;BME280;68326;52.124;5.424;2024-01-06T12:27:11;101245.03;;;6.12;78.95
71976;BME280;68326;52.124;5.424;2024-01-06T12:29:40;101249.34;;;6.11;79.21
71976;BME280;68326;52.124;5.424;2024-01-06T12:32:09;101248.63;;;6.05;79.01
71976;BME280;68326;52.124;5.424;2024-01-06T12:34:36;101249.59;;;6.01;78.85
71976;BME280;68326;52.124;5.424;2024-01-06T12:37:02;101246.25;;;5.97;79.36
71976;BME280;68326;52.124;5.424;2024-01-06T12:39:30;101254.84;;;5.98;79.44
71976;BME280;68326;52.124;5.424;2024-01-06T12:41:57;101255.69;;;5.98;79.01
71976;BME280;68326;52.124;5.424;2024-01-06T12:44:26;101249.72;;;5.96;78.99
71976;BME280;68326;52.124;5.424;2024-01-06T12:46:54;101254.78;;;5.99;79.47
71976;BME280;68326;52.124;5.424;2024-01-06T12:49:20;101255.69;;;5.98;78.60
71976;BME280;68326;52.124;5.424;2024-01-06T12:51:47;101252.41;;;5.90;79.38
71976;BME280;68326;52.124;5.424;2024-01-06T12:54:14;101250.56;;;5.97;79.08
71976;BME280;68326;52.124;5.424;2024-01-06T12:56:40;101252.28;;;5.98;79.19
71976;BME280;68326;52.124;5.424;2024-01-06T12:59:07;101253.94;;;6.00;78.93
71976;BME280;68326;52.124;5.424;2024-01-06T13:01:33;101250.63;;;5.95;79.41
71976;BME280;68326;52.124;5.424;2024-01-06T13:04:00;101254.03;;;5.94;79.08
71976;BME280;68326;52.124;5.424;2024-01-06T13:06:28;101266.16;;;5.92;79.24
71976;BME280;68326;52.124;5.424;2024-01-06T13:08:54;101266.22;;;5.89;78.92